Time;durP1;ratioP1;P1;durP2;ratioP2;P2;SDS_P1;SDS_P2;PMS_P1;PMS_P2;Temp;Humidity;BMP_temperature;BMP_pressure;BME280_temperature;BME280_humidity;BME280_pressure;Samples;Min_cycle;Max_cycle;Signal;HPM_P1;HPM_P2
2024/02/02 00:00:07;;;;;;;6.10;2.63;;;;;;;5.52;100.00;152779.47;5069308;28;20888;-90
2024/02/02 00:02:39;;;;;;;5.27;3.23;;;;;;;5.50;100.00;152774.31;5065343;28;20446;-90
2024/02/02 00:05:06;;;;;;;2.83;2.30;;;;;;;5.52;100.00;152780.78;5069340;28;20442;-90
2024/02/02 00:07:33;;;;;;;6.33;2.67;;;;;;;5.54;100.00;152785.91;5067609;28;20511;-90
2024/02/02 00:09:59;;;;;;;3.77;2.77;;;;;;;5.51;100.00;152778.19;5071945;28;20872;-90
2024/02/02 00:12:26;;;;;;;4.50;2.57;;;;;;;5.50;100.00;152775.63;5064604;28;20511;-90
2024/02/02 00:14:52;;;;;;;5.80;2.93;;;;;;;5.47;100.00;152766.59;5062697;28;20458;-90
2024/02/02 00:17:19;;;;;;;4.23;2.67;;;;;;;5.44;100.00;152758.84;5066809;28;20469;-90
2024/02/02 00:19:47;;;;;;;3.13;2.30;;;;;;;5.39;100.00;152745.94;5068778;28;20477;-90
2024/02/02 00:22:14;;;;;;;3.53;2.47;;;;;;;5.37;100.00;152740.81;5061333;28;20461;-90
2024/02/02 00:24:40;;;;;;;2.77;2.20;;;;;;;5.31;100.00;152726.63;5070556;28;20445;-90
2024/02/02 00:27:07;;;;;;;5.80;3.17;;;;;;;5.28;100.00;152717.59;5067452;28;20467;-90
2024/02/02 00:29:33;;;;;;;3.70;2.20;;;;;;;5.26;100.00;152713.75;5051135;28;20458;-90
2024/02/02 00:32:00;;;;;;;4.57;2.70;;;;;;;5.23;100.00;152706.00;5068440;28;20442;-90
2024/02/02 00:34:26;;;;;;;5.37;2.40;;;;;;;5.19;100.00;152694.41;5050177;28;20948;-90
2024/02/02 00:36:54;;;;;;;3.17;2.50;;;;;;;5.17;100.00;152689.22;5071884;28;20460;-90
2024/02/02 00:39:21;;;;;;;4.40;3.00;;;;;;;5.11;100.00;152675.03;5067057;28;20527;-90
2024/02/02 00:41:47;;;;;;;2.90;2.27;;;;;;;5.08;100.00;152666.03;5063130;28;20568;-90
2024/02/02 00:44:14;;;;;;;3.37;2.30;;;;;;;5.05;100.00;152658.31;5044452;28;21036;-89
2024/02/02 00:46:40;;;;;;;9.73;2.93;;;;;;;5.01;100.00;152647.97;5065315;28;20453;-89
2024/02/02 00:49:10;;;;;;;4.33;2.77;;;;;;;4.98;100.00;152640.28;5074345;28;20787;-91
2024/02/02 00:51:36;;;;;;;3.20;2.40;;;;;;;4.99;100.00;152642.81;5067812;28;20831;-90
2024/02/02 00:54:10;;;;;;;2.80;2.00;;;;;;;4.97;100.00;152638.97;5065509;28;20458;-90
2024/02/02 00:56:36;;;;;;;3.83;3.23;;;;;;;4.97;100.00;152637.69;5045439;28;20911;-90
2024/02/02 00:59:03;;;;;;;3.80;2.80;;;;;;;4.92;100.00;152627.34;5058161;28;20711;-90
2024/02/02 01:01:29;;;;;;;3.13;2.40;;;;;;;4.92;100.00;152627.34;5047586;28;20450;-90
2024/02/02 01:03:56;;;;;;;4.83;2.97;;;;;;;4.92;100.00;152627.34;5057154;28;20512;-90
2024/02/02 01:06:22;;;;;;;5.40;2.83;;;;;;;4.93;100.00;152629.94;5063273;28;20499;-90
2024/02/02 01:08:49;;;;;;;4.30;3.20;;;;;;;4.93;100.00;152628.63;5065910;28;20427;-90
2024/02/02 01:11:17;;;;;;;4.97;3.20;;;;;;;4.92;100.00;152627.34;5066037;28;20798;-90
2024/02/02 01:13:43;;;;;;;5.00;3.10;;;;;;;4.86;100.00;152610.63;5064059;28;20462;-90
2024/02/02 01:16:10;;;;;;;10.07;3.70;;;;;;;4.83;100.00;152604.16;5065010;28;20465;-90
2024/02/02 01:18:36;;;;;;;5.07;3.43;;;;;;;4.81;100.00;152597.72;5056489;28;20485;-91
2024/02/02 01:21:03;;;;;;;5.40;3.40;;;;;;;4.80;100.00;152596.44;5066307;28;20503;-90
2024/02/02 01:23:29;;;;;;;4.07;3.20;;;;;;;4.77;100.00;152588.69;5066392;28;21022;-90
2024/02/02 01:25:56;;;;;;;4.50;3.17;;;;;;;4.75;100.00;152583.56;5066395;28;20450;-90
2024/02/02 01:28:24;;;;;;;3.63;2.67;;;;;;;4.76;100.00;152586.16;5041366;28;20447;-90
2024/02/02 01:30:50;;;;;;;6.43;2.63;;;;;;;4.70;100.00;152570.66;5081790;28;20481;-90
2024/02/02 01:33:17;;;;;;;6.57;3.30;;;;;;;4.68;100.00;152564.22;5062630;22;20514;-79
2024/02/02 01:35:43;;;;;;;5.20;3.20;;;;;;;4.63;100.00;152552.59;5064754;28;20434;-79
2024/02/02 01:38:10;;;;;;;10.20;4.53;;;;;;;4.63;100.00;152552.59;5062654;28;20471;-79
2024/02/02 01:40:37;;;;;;;5.30;3.57;;;;;;;4.64;100.00;152555.19;5064695;28;21002;-79
2024/02/02 01:43:04;;;;;;;4.00;3.30;;;;;;;4.61;100.00;152547.47;5065379;28;20791;-79
2024/02/02 01:45:32;;;;;;;5.80;2.80;;;;;;;4.55;100.00;152530.72;5055511;28;20524;-80
2024/02/02 01:47:59;;;;;;;5.27;3.50;;;;;;;4.51;100.00;152521.69;5056920;28;20439;-79
2024/02/02 01:50:25;;;;;;;7.33;3.73;;;;;;;4.49;100.00;152516.56;5058219;28;20920;-79
2024/02/02 01:52:52;;;;;;;6.70;4.10;;;;;;;4.47;100.00;152511.41;5061694;28;20501;-79
2024/02/02 01:55:19;;;;;;;7.23;4.00;;;;;;;4.48;100.00;152512.66;5061680;28;20513;-79
2024/02/02 01:57:45;;;;;;;5.00;3.53;;;;;;;4.43;100.00;152499.78;5060710;28;20913;-80
2024/02/02 02:00:13;;;;;;;8.03;4.80;;;;;;;4.38;100.00;152488.22;5064756;28;20519;-79
2024/02/02 02:02:41;;;;;;;6.63;3.80;;;;;;;4.37;100.00;152484.38;5079450;28;20447;-79
2024/02/02 02:05:09;;;;;;;7.17;3.63;;;;;;;4.33;100.00;152475.34;5067618;28;20434;-79
2024/02/02 02:07:35;;;;;;;3.80;2.70;;;;;;;4.36;100.00;152481.78;5067068;28;20458;-78
2024/02/02 02:10:03;;;;;;;3.63;3.00;;;;;;;4.40;100.00;152493.34;5049742;28;20662;-80
2024/02/02 02:12:29;;;;;;;5.10;3.00;;;;;;;4.43;100.00;152501.09;5069896;28;20460;-80
2024/02/02 02:14:56;;;;;;;3.90;2.70;;;;;;;4.43;100.00;152501.09;5067008;28;20458;-79
2024/02/02 02:17:22;;;;;;;5.57;3.83;;;;;;;4.41;100.00;152495.94;5065446;28;20450;-79
2024/02/02 02:19:50;;;;;;;5.87;3.00;;;;;;;4.38;100.00;152488.22;5062255;28;20461;-79
2024/02/02 02:22:18;;;;;;;4.10;2.83;;;;;;;4.38;100.00;152488.22;5056023;28;21007;-79
2024/02/02 02:24:45;;;;;;;4.03;3.10;;;;;;;4.40;100.00;152492.06;5066326;28;20527;-79
2024/02/02 02:27:11;;;;;;;4.37;2.90;;;;;;;4.43;100.00;152501.09;5055803;28;20496;-79
2024/02/02 02:29:38;;;;;;;5.07;4.00;;;;;;;4.46;100.00;152508.81;5067696;28;20846;-79
2024/02/02 02:32:06;;;;;;;4.37;3.20;;;;;;;4.45;100.00;152506.22;5061914;28;21051;-79
2024/02/02 02:34:33;;;;;;;5.53;3.80;;;;;;;4.38;100.00;152488.22;5056280;28;20493;-79
2024/02/02 02:36:59;;;;;;;4.93;3.60;;;;;;;4.37;100.00;152485.63;5067294;28;20453;-79
2024/02/02 02:39:27;;;;;;;7.57;3.73;;;;;;;4.34;100.00;152476.63;5067848;28;20462;-79
2024/02/02 02:41:53;;;;;;;8.30;4.47;;;;;;;4.29;100.00;152466.31;5062638;28;20496;-78
2024/02/02 02:44:20;;;;;;;7.23;4.00;;;;;;;4.32;100.00;152472.75;5065244;28;20446;-79
2024/02/02 02:46:47;;;;;;;3.77;3.30;;;;;;;4.31;100.00;152470.19;5067032;28;20494;-79
2024/02/02 02:49:13;;;;;;;4.20;3.40;;;;;;;4.28;100.00;152462.47;5069370;28;20774;-79
2024/02/02 02:51:40;;;;;;;5.47;3.87;;;;;;;4.27;100.00;152459.88;5058831;28;20467;-79
2024/02/02 02:54:06;;;;;;;5.03;3.20;;;;;;;4.28;100.00;152462.47;5066325;28;20442;-79
2024/02/02 02:56:34;;;;;;;4.20;3.57;;;;;;;4.35;100.00;152479.19;5060835;28;20443;-79
2024/02/02 02:59:01;;;;;;;6.23;3.70;;;;;;;4.42;100.00;152498.50;5053351;28;20453;-79
2024/02/02 03:01:27;;;;;;;7.93;3.57;;;;;;;4.44;100.00;152502.38;5065188;28;20832;-79
2024/02/02 03:03:54;;;;;;;7.60;3.50;;;;;;;4.43;100.00;152501.09;5065917;28;20430;-79
2024/02/02 03:06:20;;;;;;;7.60;3.40;;;;;;;4.43;100.00;152501.09;5065564;28;20511;-79
2024/02/02 03:08:47;;;;;;;5.23;3.53;;;;;;;4.46;100.00;152508.81;5067752;28;20426;-79
2024/02/02 03:11:13;;;;;;;8.60;4.03;;;;;;;4.50;100.00;152519.09;5066304;28;20457;-79
2024/02/02 03:13:41;;;;;;;4.03;3.43;;;;;;;4.51;100.00;152521.69;5065719;28;20450;-79
2024/02/02 03:16:08;;;;;;;4.40;3.23;;;;;;;4.54;100.00;152529.44;5059902;28;20437;-79
2024/02/02 03:18:34;;;;;;;5.20;4.30;;;;;;;4.54;100.00;152528.13;5063760;28;20515;-79
2024/02/02 03:21:01;;;;;;;5.03;3.80;;;;;;;4.54;100.00;152529.44;5059088;28;20470;-79
2024/02/02 03:23:27;;;;;;;5.90;3.80;;;;;;;4.59;100.00;152541.03;5065014;28;20458;-79
2024/02/02 03:25:54;;;;;;;5.83;3.73;;;;;;;4.59;100.00;152542.31;5068328;28;20446;-79
2024/02/02 03:28:20;;;;;;;7.50;3.73;;;;;;;4.62;100.00;152548.75;5067440;28;20860;-79
2024/02/02 03:30:48;;;;;;;4.03;3.43;;;;;;;4.60;100.00;152544.91;5064747;28;20438;-79
2024/02/02 03:33:14;;;;;;;5.03;3.40;;;;;;;4.67;100.00;152562.94;5057616;28;20519;-79
2024/02/02 03:35:41;;;;;;;4.53;3.30;;;;;;;4.66;100.00;152559.09;5065846;28;20971;-79
2024/02/02 03:38:07;;;;;;;6.70;3.00;;;;;;;4.70;100.00;152569.38;5063611;28;20474;-79
2024/02/02 03:40:34;;;;;;;5.37;4.33;;;;;;;4.74;100.00;152580.97;5064810;28;20485;-79
2024/02/02 03:43:00;;;;;;;4.73;3.60;;;;;;;4.76;100.00;152586.16;5044941;28;20507;-79
2024/02/02 03:45:27;;;;;;;7.03;4.57;;;;;;;4.76;100.00;152586.16;5063836;28;20448;-79
2024/02/02 03:47:55;;;;;;;6.87;4.80;;;;;;;4.76;100.00;152586.16;5080002;28;20501;-79
2024/02/02 03:50:21;;;;;;;6.20;4.03;;;;;;;4.76;100.00;152584.84;5063814;28;21010;-79
2024/02/02 03:52:50;;;;;;;5.30;4.70;;;;;;;4.76;100.00;152586.16;5067402;28;20442;-79
2024/02/02 03:55:17;;;;;;;4.90;4.10;;;;;;;4.74;100.00;152580.97;5075947;28;20827;-79
2024/02/02 03:57:43;;;;;;;5.80;4.37;;;;;;;4.73;100.00;152577.13;5057930;28;20791;-79
2024/02/02 04:00:10;;;;;;;4.73;4.13;;;;;;;4.74;100.00;152580.97;5057267;28;20862;-79
2024/02/02 04:02:41;;;;;;;10.07;4.67;;;;;;;4.76;100.00;152584.84;5063636;28;20789;-79
2024/02/02 04:05:09;;;;;;;6.30;4.47;;;;;;;4.76;100.00;152584.84;5064154;28;20450;-79
2024/02/02 04:07:35;;;;;;;5.47;4.30;;;;;;;4.76;100.00;152586.16;5063416;28;20446;-79
2024/02/02 04:10:03;;;;;;;8.37;4.70;;;;;;;4.76;100.00;152586.16;5063519;28;20453;-79
2024/02/02 04:12:29;;;;;;;5.70;4.50;;;;;;;4.76;100.00;152586.16;5063031;28;20948;-79
2024/02/02 04:14:56;;;;;;;6.43;4.50;;;;;;;4.80;100.00;152596.44;5058502;28;20973;-79
2024/02/02 04:17:22;;;;;;;6.83;5.20;;;;;;;4.81;100.00;152599.03;5061731;28;20442;-80
2024/02/02 04:19:49;;;;;;;7.03;5.37;;;;;;;4.83;100.00;152604.16;5064160;28;20470;-79
2024/02/02 04:22:17;;;;;;;4.70;3.80;;;;;;;4.86;100.00;152610.63;5062251;28;20528;-79
2024/02/02 04:24:43;;;;;;;5.83;4.63;;;;;;;4.86;100.00;152610.63;5064897;28;20450;-79
2024/02/02 04:27:10;;;;;;;5.93;4.70;;;;;;;4.84;100.00;152606.72;5066206;28;20471;-79
2024/02/02 04:29:36;;;;;;;8.47;5.40;;;;;;;4.83;100.00;152604.16;5067087;28;20438;-79
2024/02/02 04:32:03;;;;;;;11.50;5.20;;;;;;;4.84;100.00;152605.47;5054841;28;20595;-79
2024/02/02 04:34:30;;;;;;;7.70;5.30;;;;;;;4.84;100.00;152605.47;5054828;28;20431;-80
2024/02/02 04:36:57;;;;;;;6.90;5.30;;;;;;;4.84;100.00;152606.72;5082280;28;20438;-79
2024/02/02 04:39:25;;;;;;;7.17;5.20;;;;;;;4.86;100.00;152611.91;5061496;28;20549;-77
2024/02/02 04:41:51;;;;;;;7.30;6.37;;;;;;;4.86;100.00;152611.91;5056103;28;20486;-79
2024/02/02 04:44:18;;;;;;;7.70;5.90;;;;;;;4.87;100.00;152614.47;5051898;28;20508;-79
2024/02/02 04:46:44;;;;;;;7.50;5.90;;;;;;;4.92;100.00;152626.09;5061456;28;20457;-80
2024/02/02 04:49:11;;;;;;;7.00;5.60;;;;;;;4.93;100.00;152628.63;5063711;28;20454;-79
2024/02/02 04:51:37;;;;;;;7.47;5.83;;;;;;;4.93;100.00;152629.94;5062441;28;20523;-79
2024/02/02 04:54:04;;;;;;;7.30;5.73;;;;;;;4.96;100.00;152635.06;5046255;28;20449;-79
2024/02/02 04:56:32;;;;;;;8.27;6.33;;;;;;;4.96;100.00;152636.38;5073006;28;20544;-79
2024/02/02 04:58:58;;;;;;;6.37;5.57;;;;;;;4.96;100.00;152635.06;5061252;28;20972;-79
2024/02/02 05:01:25;;;;;;;8.00;6.00;;;;;;;4.97;100.00;152637.69;5045617;28;21050;-79
2024/02/02 05:03:52;;;;;;;7.80;5.37;;;;;;;4.98;100.00;152640.28;5061261;28;20528;-80
2024/02/02 05:06:19;;;;;;;8.10;5.90;;;;;;;4.99;100.00;152642.81;5059818;28;20550;-79
2024/02/02 05:08:45;;;;;;;10.17;6.20;;;;;;;4.99;100.00;152642.81;5058480;28;20463;-79
2024/02/02 05:11:12;;;;;;;7.77;4.97;;;;;;;5.01;100.00;152649.25;5068557;28;20487;-79
2024/02/02 05:13:40;;;;;;;8.00;6.50;;;;;;;5.03;100.00;152654.41;5064857;28;20450;-78
2024/02/02 05:16:08;;;;;;;8.17;6.03;;;;;;;5.03;100.00;152654.41;5075864;28;20445;-79
2024/02/02 05:18:34;;;;;;;7.67;5.57;;;;;;;5.04;100.00;152655.69;5081139;28;20461;-79
2024/02/02 05:21:01;;;;;;;7.10;5.67;;;;;;;5.07;100.00;152663.44;5055907;28;20878;-79
2024/02/02 05:23:27;;;;;;;7.77;5.97;;;;;;;5.08;100.00;152666.03;5061903;28;20463;-78
2024/02/02 05:25:54;;;;;;;6.93;5.80;;;;;;;5.09;100.00;152669.88;5061517;28;20508;-78
2024/02/02 05:28:20;;;;;;;8.33;6.63;;;;;;;5.10;100.00;152671.19;5064587;28;20487;-79
2024/02/02 05:30:48;;;;;;;10.20;6.17;;;;;;;5.14;100.00;152681.47;5064483;28;20454;-79
2024/02/02 05:33:15;;;;;;;6.07;5.40;;;;;;;5.18;100.00;152691.81;5065343;28;20562;-79
2024/02/02 05:35:41;;;;;;;9.50;6.90;;;;;;;5.19;100.00;152694.41;5064426;28;20996;-79
2024/02/02 05:38:08;;;;;;;8.23;6.13;;;;;;;5.18;100.00;152691.81;5066571;28;20457;-79
2024/02/02 05:40:34;;;;;;;8.23;6.17;;;;;;;5.18;100.00;152693.09;5053225;28;20708;-79
2024/02/02 05:43:01;;;;;;;7.17;5.43;;;;;;;5.17;100.00;152690.50;5066995;28;20457;-79
2024/02/02 05:45:27;;;;;;;7.90;5.63;;;;;;;5.20;100.00;152698.25;5084593;28;20453;-79
2024/02/02 05:47:55;;;;;;;8.97;6.00;;;;;;;5.20;100.00;152698.25;5066841;28;20469;-79
2024/02/02 05:50:22;;;;;;;8.20;6.00;;;;;;;5.22;100.00;152702.09;5071964;28;20434;-79
2024/02/02 05:52:48;;;;;;;7.80;6.10;;;;;;;5.23;100.00;152704.69;5068340;28;20462;-79
2024/02/02 05:55:15;;;;;;;8.70;5.97;;;;;;;5.25;100.00;152711.13;5061545;28;20542;-79
2024/02/02 05:57:42;;;;;;;8.83;7.20;;;;;;;5.27;100.00;152715.03;5062668;28;20464;-79
2024/02/02 06:00:10;;;;;;;8.53;6.40;;;;;;;5.27;100.00;152715.03;5063953;28;20485;-79
2024/02/02 06:02:37;;;;;;;8.30;6.73;;;;;;;5.30;100.00;152722.72;5063257;28;20458;-79
2024/02/02 06:05:06;;;;;;;9.10;6.97;;;;;;;5.31;100.00;152725.31;5061340;28;20526;-79
2024/02/02 06:07:32;;;;;;;8.97;6.53;;;;;;;5.32;100.00;152727.91;5075077;28;21072;-79
2024/02/02 06:09:59;;;;;;;10.70;6.83;;;;;;;5.33;100.00;152731.78;5061793;28;20454;-79
2024/02/02 06:12:25;;;;;;;9.10;7.53;;;;;;;5.35;100.00;152736.91;5058615;28;20978;-78
2024/02/02 06:14:52;;;;;;;9.70;6.43;;;;;;;5.36;100.00;152739.50;5075352;28;20450;-79
2024/02/02 06:17:19;;;;;;;8.37;6.50;;;;;;;5.36;100.00;152739.50;5071272;28;20465;-79
2024/02/02 06:19:45;;;;;;;8.43;6.63;;;;;;;5.39;100.00;152745.94;5058284;28;20455;-79
2024/02/02 06:22:13;;;;;;;8.10;6.77;;;;;;;5.40;100.00;152748.56;5073267;28;20988;-78
2024/02/02 06:24:39;;;;;;;9.03;6.83;;;;;;;5.41;100.00;152752.41;5074329;28;20449;-79
2024/02/02 06:27:06;;;;;;;11.47;7.47;;;;;;;5.44;100.00;152760.13;5057991;28;20806;-79
2024/02/02 06:29:34;;;;;;;10.57;7.33;;;;;;;5.45;100.00;152761.44;5073568;28;20557;-79
2024/02/02 06:32:00;;;;;;;9.20;6.73;;;;;;;5.46;100.00;152764.00;5056540;28;21103;-79
2024/02/02 06:34:27;;;;;;;10.13;6.90;;;;;;;5.45;100.00;152762.69;5057198;28;20457;-79
2024/02/02 06:36:54;;;;;;;9.73;7.53;;;;;;;5.46;100.00;152765.28;5073296;28;20450;-78
2024/02/02 06:39:23;;;;;;;11.53;7.03;;;;;;;5.47;100.00;152767.88;5058217;28;20540;-79
2024/02/02 06:41:53;;;;;;;9.37;7.30;;;;;;;5.49;100.00;152771.72;5059580;28;20501;-79
2024/02/02 06:44:19;;;;;;;11.10;7.70;;;;;;;5.47;100.00;152766.59;5059060;28;20458;-79
2024/02/02 06:46:46;;;;;;;9.47;6.80;;;;;;;5.49;100.00;152771.72;5058299;28;20469;-79
2024/02/02 06:49:13;;;;;;;10.47;7.70;;;;;;;5.49;100.00;152771.72;5073468;28;20458;-79
2024/02/02 06:51:39;;;;;;;9.83;7.20;;;;;;;5.51;100.00;152776.88;5058907;28;20541;-79
2024/02/02 06:54:06;;;;;;;7.63;6.40;;;;;;;5.51;100.00;152776.88;5054441;28;20465;-79
2024/02/02 06:56:37;;;;;;;9.00;6.73;;;;;;;5.53;100.00;152782.06;5057931;28;20562;-79
2024/02/02 06:59:04;;;;;;;10.83;7.47;;;;;;;5.53;100.00;152782.06;5058665;28;20443;-79
2024/02/02 07:01:31;;;;;;;8.60;6.70;;;;;;;5.55;100.00;152787.22;5072671;28;20552;-79
2024/02/02 07:03:57;;;;;;;10.13;8.40;;;;;;;5.55;100.00;152787.22;5053910;28;20458;-79
2024/02/02 07:06:24;;;;;;;10.20;7.80;;;;;;;5.55;100.00;152787.22;5073631;28;20466;-79
2024/02/02 07:08:50;;;;;;;9.60;7.60;;;;;;;5.55;100.00;152787.22;5057139;28;20543;-79
2024/02/02 07:11:53;;;;;;;10.43;7.33;;;;;;;5.55;100.00;152787.22;5058202;28;20435;-79
2024/02/02 07:14:42;;;;;;;8.60;7.33;;;;;;;5.56;100.00;152788.50;5050507;28;20454;-78
2024/02/02 07:17:21;;;;;;;9.57;7.63;;;;;;;5.57;100.00;152792.38;5056404;28;20879;-78
2024/02/02 07:19:48;;;;;;;8.10;7.00;;;;;;;5.58;100.00;152794.97;5057845;28;21159;-78
2024/02/02 07:22:29;;;;;;;10.37;7.70;;;;;;;5.59;100.00;152797.50;5057699;28;20527;-76
2024/02/02 07:24:55;;;;;;;11.17;7.53;;;;;;;5.60;100.00;152800.09;5058289;28;20452;-78
2024/02/02 07:27:33;;;;;;;8.63;6.67;;;;;;;5.61;100.00;152802.72;5072198;28;20578;-79
2024/02/02 07:30:02;;;;;;;10.03;7.53;;;;;;;5.62;100.00;152805.25;5047111;28;20481;-78
2024/02/02 07:32:29;;;;;;;10.50;8.47;;;;;;;5.64;100.00;152810.41;5061607;28;20497;-79
2024/02/02 07:34:56;;;;;;;11.40;8.60;;;;;;;5.63;100.00;152807.84;5072095;28;20450;-78
2024/02/02 07:37:44;;;;;;;11.60;7.87;;;;;;;5.66;100.00;152814.28;5059346;28;20876;-78
2024/02/02 07:40:53;;;;;;;9.00;6.80;;;;;;;5.67;100.00;152818.16;5060674;28;20437;-79
2024/02/02 07:43:20;;;;;;;9.53;7.00;;;;;;;5.70;100.00;152824.59;5056383;28;20633;-79
2024/02/02 07:45:48;;;;;;;9.47;7.73;;;;;;;5.70;100.00;152825.88;5070401;28;20555;-78
2024/02/02 07:48:14;;;;;;;8.93;7.77;;;;;;;5.70;100.00;152825.88;5058112;28;20453;-79
2024/02/02 07:50:41;;;;;;;10.13;7.50;;;;;;;5.70;100.00;152825.88;5072677;28;20458;-79
2024/02/02 07:53:07;;;;;;;9.33;7.40;;;;;;;5.72;100.00;152829.78;5056701;28;20459;-79
2024/02/02 07:55:34;;;;;;;11.37;7.10;;;;;;;5.75;100.00;152838.78;5053966;28;20465;-79
2024/02/02 07:58:00;;;;;;;9.37;7.37;;;;;;;5.78;100.00;152845.22;5037636;28;20463;-79
2024/02/02 08:00:27;;;;;;;11.50;7.93;;;;;;;5.80;100.00;152850.44;5056729;28;20442;-79
2024/02/02 08:02:55;;;;;;;14.17;7.70;;;;;;;5.82;100.00;152856.88;5055187;28;20518;-79
2024/02/02 08:05:21;;;;;;;10.43;8.60;;;;;;;5.84;100.00;152860.72;5039289;28;20455;-79
2024/02/02 08:07:48;;;;;;;8.70;7.80;;;;;;;5.87;100.00;152869.81;5057035;28;20491;-79
2024/02/02 08:10:14;;;;;;;8.00;6.87;;;;;;;5.91;100.00;152880.09;5055370;28;20458;-79
2024/02/02 08:12:41;;;;;;;8.10;6.77;;;;;;;5.93;100.00;152884.00;5057748;28;20523;-79
2024/02/02 08:15:08;;;;;;;9.43;7.57;;;;;;;5.95;100.00;152890.44;5058005;28;20450;-79
2024/02/02 08:17:35;;;;;;;10.00;8.10;;;;;;;6.00;100.00;152903.34;5053026;28;20461;-79
2024/02/02 08:20:02;;;;;;;8.53;6.40;;;;;;;6.01;100.00;152905.88;5071609;28;20458;-79
2024/02/02 08:22:29;;;;;;;9.53;7.20;;;;;;;6.01;100.00;152905.88;5057727;28;20988;-79
2024/02/02 08:24:55;;;;;;;10.60;8.03;;;;;;;6.04;100.00;152913.63;5055000;28;20469;-79
2024/02/02 08:27:22;;;;;;;12.77;8.17;;;;;;;6.05;100.00;152916.25;5055458;28;20513;-79
2024/02/02 08:29:48;;;;;;;11.50;8.33;;;;;;;6.06;100.00;152918.78;5054826;28;20453;-79
2024/02/02 08:32:15;;;;;;;9.37;7.17;;;;;;;6.08;100.00;152923.97;5056479;28;20470;-79
2024/02/02 08:34:41;;;;;;;8.97;7.43;;;;;;;6.10;100.00;152929.13;5053601;28;20450;-79
2024/02/02 08:37:09;;;;;;;9.33;6.97;;;;;;;6.11;100.00;152931.72;5070792;28;20464;-78
2024/02/02 08:39:36;;;;;;;9.00;7.43;;;;;;;6.13;100.00;152936.88;5056666;28;20500;-79
2024/02/02 08:42:08;;;;;;;9.27;7.40;;;;;;;6.15;100.00;152940.72;5055813;28;20571;-79
2024/02/02 08:44:35;;;;;;;7.93;6.87;;;;;;;6.16;100.00;152943.31;5070652;28;20535;-79
2024/02/02 08:47:02;;;;;;;8.50;7.50;;;;;;;6.20;100.00;152952.31;5063386;28;20474;-79
2024/02/02 08:49:45;;;;;;;8.50;7.07;;;;;;;6.23;100.00;152961.38;5052673;28;20455;-79
2024/02/02 08:52:20;;;;;;;12.80;8.50;;;;;;;6.26;100.00;152967.81;5053771;28;20457;-79
2024/02/02 08:54:47;;;;;;;8.83;7.13;;;;;;;6.27;100.00;152971.72;5055719;28;20451;-78
2024/02/02 08:57:25;;;;;;;10.80;7.93;;;;;;;6.30;100.00;152978.16;5054695;28;20462;-79
2024/02/02 08:59:53;;;;;;;9.90;7.60;;;;;;;6.34;100.00;152988.47;5071141;28;20446;-77
2024/02/02 09:02:56;;;;;;;8.90;7.60;;;;;;;6.36;100.00;152993.63;5069165;28;20483;-79
2024/02/02 09:05:24;;;;;;;10.40;7.90;;;;;;;6.41;100.00;153006.53;5056886;28;20438;-79
2024/02/02 09:08:09;;;;;;;8.00;5.70;;;;;;;6.43;100.00;153011.72;5071173;28;20962;-78
2024/02/02 09:11:21;;;;;;;9.10;7.17;;;;;;;6.44;100.00;153014.28;5058647;28;20441;-78
2024/02/02 09:13:49;;;;;;;9.50;7.40;;;;;;;6.47;100.00;153022.00;5071585;28;20809;-78
2024/02/02 09:16:17;;;;;;;8.53;6.80;;;;;;;6.49;100.00;153027.16;5054772;28;20872;-78
2024/02/02 09:18:45;;;;;;;9.10;6.70;;;;;;;6.54;100.00;153040.13;5069421;28;20454;-78
2024/02/02 09:21:14;;;;;;;8.10;6.70;;;;;;;6.56;100.00;153045.25;5054348;28;20834;-78
2024/02/02 09:23:48;;;;;;;9.13;8.00;;;;;;;6.60;100.00;153055.56;5056762;28;20463;-79
2024/02/02 09:26:16;;;;;;;8.60;7.00;;;;;;;6.62;100.00;153062.03;5054790;28;20616;-78
2024/02/02 09:28:43;;;;;;;7.90;6.60;;;;;;;6.65;100.00;153069.78;5072071;28;20520;-78
2024/02/02 09:31:12;;;;;;;7.97;7.10;;;;;;;6.69;100.00;153078.81;5055245;28;20535;-78
2024/02/02 09:33:46;;;;;;;10.47;6.87;;;;;;;6.72;100.00;153086.56;5032305;28;20466;-78
2024/02/02 09:36:13;;;;;;;9.17;6.90;;;;;;;6.77;100.00;153099.47;5034413;28;20476;-78
2024/02/02 09:38:39;;;;;;;7.93;6.03;;;;;;;6.77;100.00;153099.47;5014798;28;20459;-78
2024/02/02 09:41:30;;;;;;;8.63;7.10;;;;;;;6.84;100.00;153117.53;5035136;28;20474;-78
2024/02/02 09:44:02;;;;;;;8.83;6.60;;;;;;;6.87;100.00;153125.28;5035243;28;20455;-78
2024/02/02 09:46:44;;;;;;;6.93;5.30;;;;;;;6.88;100.00;153126.59;5035348;28;20486;-78
2024/02/02 09:49:16;;;;;;;7.47;5.67;;;;;;;6.91;100.00;153135.59;5034271;28;21017;-78
2024/02/02 09:51:49;;;;;;;7.03;6.23;;;;;;;6.97;100.00;153149.78;5032670;28;20952;-78
2024/02/02 09:54:22;;;;;;;8.60;6.33;;;;;;;7.01;100.00;153161.44;5042253;28;20447;-78
2024/02/02 09:56:59;;;;;;;8.10;5.70;;;;;;;7.03;100.00;153166.59;5035030;28;21980;-78
2024/02/02 09:59:30;;;;;;;9.23;7.30;;;;;;;7.04;100.00;153169.16;5036100;28;20904;-78
2024/02/02 10:02:13;;;;;;;8.40;6.93;;;;;;;7.08;100.00;153179.50;5039308;28;20826;-78
2024/02/02 10:04:46;;;;;;;7.67;6.00;;;;;;;7.11;100.00;153187.25;5035807;28;20454;-78
2024/02/02 10:07:25;;;;;;;6.77;5.57;;;;;;;7.12;100.00;153189.81;5030857;28;21068;-78
2024/02/02 10:10:10;;;;;;;7.03;5.93;;;;;;;7.16;100.00;153200.16;5035324;28;20502;-78
2024/02/02 10:12:45;;;;;;;7.07;5.50;;;;;;;7.22;100.00;153215.66;5033874;28;21096;-78
2024/02/02 10:15:23;;;;;;;6.50;5.07;;;;;;;7.25;100.00;153223.38;5031503;28;20796;-78
2024/02/02 10:18:04;;;;;;;7.30;5.23;;;;;;;7.28;100.00;153229.88;5028230;28;20468;-78
2024/02/02 10:20:37;;;;;;;7.47;5.87;;;;;;;7.30;100.00;153235.03;5037236;28;21123;-78
2024/02/02 10:23:22;;;;;;;6.17;4.60;;;;;;;7.30;100.00;153236.34;5037946;28;20474;-78
2024/02/02 10:26:01;;;;;;;8.67;5.87;;;;;;;7.31;100.00;153238.88;5044741;28;20547;-78
2024/02/02 10:28:39;;;;;;;7.83;5.40;;;;;;;7.35;100.00;153249.25;5035892;28;20500;-78
2024/02/02 10:31:17;;;;;;;8.97;5.90;;;;;;;7.41;100.00;153262.16;5039225;28;20509;-78
2024/02/02 10:33:57;;;;;;;7.33;5.83;;;;;;;7.43;100.00;153267.31;5011562;28;20542;-78
2024/02/02 10:36:31;;;;;;;5.63;4.77;;;;;;;7.46;100.00;153275.06;5020415;28;20556;-78
2024/02/02 10:39:11;;;;;;;6.07;5.00;;;;;;;7.50;100.00;153285.38;5019243;28;20444;-79
2024/02/02 10:41:48;;;;;;;8.30;5.90;;;;;;;7.55;100.00;153298.28;5019826;28;20558;-78
2024/02/02 10:44:22;;;;;;;6.37;4.67;;;;;;;7.59;100.00;153309.94;5014282;28;20513;-78
2024/02/02 10:46:57;;;;;;;8.47;5.03;;;;;;;7.63;100.00;153320.25;5014842;28;20520;-79
2024/02/02 10:49:36;;;;;;;5.77;4.87;;;;;;;7.67;100.00;153329.31;4999337;28;20945;-78
2024/02/02 10:52:10;;;;;;;8.10;5.10;;;;;;;7.71;100.00;153339.63;5024226;28;21001;-79
2024/02/02 10:54:58;;;;;;;6.33;5.00;;;;;;;7.76;100.00;153352.53;5016442;28;20533;-78
2024/02/02 10:57:33;;;;;;;6.00;4.17;;;;;;;7.83;100.00;153370.66;5013085;28;20461;-78
2024/02/02 11:00:08;;;;;;;6.10;5.00;;;;;;;7.87;100.00;153380.97;5015841;28;20451;-78
2024/02/02 11:02:45;;;;;;;5.20;4.70;;;;;;;7.91;100.00;153391.31;5020165;28;20482;-78
2024/02/02 11:05:16;;;;;;;6.00;4.67;;;;;;;7.95;100.00;153402.94;5031050;28;20554;-78
2024/02/02 11:07:47;;;;;;;7.50;4.63;;;;;;;7.96;100.00;153405.53;5002657;28;20464;-78
2024/02/02 11:10:17;;;;;;;4.43;4.03;;;;;;;8.00;100.00;153414.53;5015224;28;20452;-78
2024/02/02 11:12:49;;;;;;;6.53;4.33;;;;;;;8.03;100.00;153421.00;5013648;28;20463;-78
2024/02/02 11:15:31;;;;;;;3.97;3.20;;;;;;;8.05;100.00;153427.47;5020053;28;20451;-78
2024/02/02 11:18:08;;;;;;;5.10;3.97;;;;;;;8.08;100.00;153435.22;5029819;28;20480;-78
2024/02/02 11:20:41;;;;;;;4.70;4.17;;;;;;;8.15;100.00;153453.34;5024064;28;20822;-78
2024/02/02 11:23:16;;;;;;;3.70;3.10;;;;;;;8.19;100.00;153463.66;5018978;28;20884;-78
2024/02/02 11:25:49;;;;;;;3.40;2.67;;;;;;;8.20;100.00;153464.97;5016419;28;20514;-78
2024/02/02 11:28:22;;;;;;;3.73;2.50;;;;;;;8.21;100.00;153468.81;5023742;28;20466;-78
2024/02/02 11:30:58;;;;;;;3.43;2.37;;;;;;;8.23;100.00;153474.03;5016718;28;20451;-78
2024/02/02 11:33:47;;;;;;;4.00;3.10;;;;;;;8.23;100.00;153474.03;5035507;28;21099;-78